Melita — V7VX8 — position and weather

sailwx.info

Track history (hours):
 
Tides and Currents Weather Stations Pressure Air Temp Water Temp Dewpoint Dewpoint Depression Visibility Wind Speed Wind Dir Waves Ship Positions

Melita

Last reported at 2018-Feb-19 19:22 UTC. Time now 2018-Feb-20 04:20 UTC.
Position N 17°30' W 063°00'.

Length 274 m; draft 16.9 m.

Type: Tanker. MMSI: 538004237.

Date/timePositionNaut miles runAvg speedWind from/ knotsBaromVisibWave heightAir tempDewpointWater temp
2018-Feb-19 19:22N 17°30' W 063°00'0 0.3
2018-Feb-19 18:57N 17°30' W 063°00'1 1.9
2018-Feb-19 18:22N 17°29' W 063°01'1 2.6
2018-Feb-19 17:54N 17°28' W 063°02'3 6.5
2018-Feb-19 17:27N 17°25' W 063°01'1 2.7
2018-Feb-19 16:56N 17°23' W 063°02'2 1.1
2018-Feb-19 15:14N 17°25' W 063°00'1 1.2
2018-Feb-19 14:17N 17°25' W 062°59'0 1.1
2018-Feb-19 14:00N 17°25' W 062°59'1 1.6
2018-Feb-19 13:22N 17°25' W 062°60'69 9.9
2018-Feb-19 06:22N 16°15' W 063°01'  
Track history (hours):
 
Tides and Currents Weather Stations Pressure Air Temp Water Temp Dewpoint Dewpoint Depression Visibility Wind Speed Wind Dir Waves Ship Positions

Melita

Last reported at 2018-Feb-19 19:22 UTC. Time now 2018-Feb-20 04:20 UTC.
Position N 17°30' W 063°00'.

Length 274 m; draft 16.9 m.

Type: Tanker. MMSI: 538004237.

Date/timePositionNaut miles runAvg speedWind from/ knotsBaromVisibWave heightAir tempDewpointWater temp
2018-Feb-19 19:22N 17°30' W 063°00'0 0.3
2018-Feb-19 18:57N 17°30' W 063°00'1 1.9
2018-Feb-19 18:22N 17°29' W 063°01'1 2.6
2018-Feb-19 17:54N 17°28' W 063°02'3 6.5
2018-Feb-19 17:27N 17°25' W 063°01'1 2.7
2018-Feb-19 16:56N 17°23' W 063°02'2 1.1
2018-Feb-19 15:14N 17°25' W 063°00'1 1.2
2018-Feb-19 14:17N 17°25' W 062°59'0 1.1
2018-Feb-19 14:00N 17°25' W 062°59'1 1.6
2018-Feb-19 13:22N 17°25' W 062°60'69 9.9
2018-Feb-19 06:22N 16°15' W 063°01'  

Dump ship's entire track history